AirNav   Air Wisconsin Up To $57,000 Bonus
 
 666 users online  

1OI7 Ross Landing Zone 2 Heliport
Hamilton, Ohio, USA


FAA INFORMATION EFFECTIVE 08 SEPTEMBER 2022

Location

FAA Identifier: 1OI7
Lat/Long: 39-23-00.0700N 084-39-15.4300W
39-23.001167N 084-39.257167W
39.3833528,-84.6542861
(estimated)
Elevation: 614 ft. / 187 m
From city: 4 miles W of HAMILTON, OH
Time zone: UTC -4 (UTC -5 during Standard Time)
Zip code: 45013

Heliport Operations

Heliport use: Private use. Permission required prior to landing
Activation date: 07/2021
Control tower: no
ARTCC: INDIANAPOLIS CENTER
FSS: DAYTON FLIGHT SERVICE STATION
Attendance: UNATNDD
Segmented circle: no

Heliport Communications

CTAF: 122.9
WX ASOS at HAO (6 nm E): 121.425 (513-863-6137)
WX AWOS-3PT at I67 (9 nm SW): 118.15 (513-569-4964)
WX AWOS-3PT at OXD (9 nm NW): 118.625 (513-273-2032)
WX AWOS-3 at MWO (15 nm NE): 120.025 (513-422-3505)
WX AWOS-3 at I68 (19 nm E): 120.55 (513-934-5500)

Nearby radio navigation aids

VOR radial/distance  VOR name  Freq  Var
CVGr010/22.2CINCINNATI VORTAC117.3004W
MXQr270/39.6MIDWEST VOR/DME112.9004W
DQNr198/39.8DAYTON VOR/DME114.5001W

 
NDB name  Hdg/Dist  Freq  Var  ID
HOOK FIELD238/11.823904WHKF .... -.- ..-.
SPORTYS316/27.524504WPWF .--. .-- ..-.
BATESVILLE090/28.125405WHLB .... .-.. -...

Heliport Services

Runway Information

Helipad H1

Dimensions: 40 x 40 ft. / 12 x 12 m
Surface: concrete
Latitude: 39-23.001167N
Longitude: 084-39.257167W
Elevation: 614.0 ft.
Traffic pattern: leftleft

Heliport Ownership and Management from official FAA records

Ownership: Publicly-owned
Owner: ROSS TOWNSHIP FIRE DEPT
1308 ROSS MILLVILLE RD
HAMILTON, OH 45013-9618
Phone 513-863-3410
Manager: STEVE MILLER, CHIEF
ROSS TOWNSHIP FIRE DEPT, PO BOX 71
ROSS, OH 45061-0071
Phone 513-863-3410

Heliport Operational Statistics

Aircraft based on the field: 1
Helicopters: 1
    

Additional Remarks

FOR CD CTC CINCINNATI APCH AT 859-372-6440.
ALL HEL INGRESS/EGRESS OPS SHOULD BE CONDUCTED ON A 085-235 DEG CRS CLKWS USING THE CNTR OF THE HELIPORT AS THE REF POINT.

Instrument Procedures

There are no published instrument procedures at 1OI7.

Some nearby airports with instrument procedures:

KHAO - Butler County Regional Airport/Hogan Field (6 nm E)
I67 - Cincinnati West Airport (9 nm SW)
KOXD - Miami University Airport (9 nm NW)
KMWO - Middletown Regional Airport/Hook Field (15 nm NE)
I68 - Warren County Airport/John Lane Field (19 nm E)
 
Loc | Ops | Rwys | IFR | FBO | Links
Com | Nav | Svcs | Stats | Notes
Aerial photo
No photo
 
Airport distance calculator
Flying to Ross Landing Zone 2 Heliport? Find the distance to fly.

From to 1OI7

Sunrise and sunset
Times for 04-Oct-2022
 Local
(UTC-4)
 Zulu
(UTC)
Morning civil twilight07:1211:12
Sunrise07:3911:39
Sunset19:1623:16
Evening civil twilight19:4323:43

Current date and time
Zulu (UTC)  04-Oct-2022 07:23:33
Local (UTC-4)  04-Oct-2022 03:23:33
 
METAR
KHAO 
6nm E 
040653Z AUTO 00000KT 10SM CLR 04/03 A3027 RMK AO2 SLP250 T00390028
KI67 
9nm SW 
040655Z AUTO 00000KT 10SM CLR 04/03 A3026 RMK AO1
KOXD 
9nm NW 
040655Z AUTO 08003KT 10SM CLR 09/06 A3025 RMK AO2 T00890055
KMWO 
15nm NE 
040655Z AUTO 01005KT 10SM CLR 06/05 A3026 RMK AO2 T00630053
KI68 
19nm E 
040655Z AUTO 07003KT 10SM CLR 08/06 A3025 RMK AO1 T00750058
TAF
KCVG 
20nm S 
040541Z 0406/0512 04004KT P6SM SCT250 FM041500 02008KT P6SM FEW080 SCT200 FM042300 01003KT P6SM SKC
KLUK 
20nm SE 
040541Z 0406/0506 01003KT P6SM SCT250 FM040800 00000KT 4SM BR SCT250 TEMPO 0409/0412 2SM BR FM041300 02006KT P6SM FEW080 SCT200 FM042300 00000KT P6SM SKC
NOTAMs
Click for the latest NOTAMs
NOTAMs are issued by the DoD/FAA and will open in a separate window not controlled by AirNav.

 

 
 

Would you like to see your business listed on this page?

 If your business provides an interesting product or service to pilots, flight crews, aircraft, or users of the Ross Landing Zone 2 Heliport, you should consider listing it here.  To start the listing process, click on the button below
 
Add a business
 

Other Pages about Ross Landing Zone 2 Heliport

Update a link
 
Copyright © AirNav, LLC. All rights reserved. Privacy Policy  Contact